Halifax, Nova Scotia

11:29 AM AST on February 26, 2017 (GMT -0400)
Shwartswald | | Change Station

Elev -22 ft 44.84 °N, 63.59 °W | Updated 2 seconds ago

Overcast
Overcast
47.3 °F
Feels Like 47 °F
N
1.7
Wind Variable Wind from North

Today
High -- | Low -- °F
--% Chance of Precip.
Yesterday
High -- | Low -- °F
Precip. -- in
Pressure 29.39 in
Visibility 0.8 miles
Clouds Overcast 300 ft
Windchill 47 °F
Dew Point 46 °F
Humidity 95%
Rainfall 1.01 in
Snow Depth Not available.
6:56 AM 5:57 PM
New Moon, 0% visible
SPECI CYHZ 261510Z 23013G19KT 3/4SM R23/3000FT/N R14/4500VP6000FT/U BR OVC003 07/07 A2938 RMK FG7SF1 SLP952
Pressure 29.39 in
Visibility 0.8 miles
Clouds Overcast 300 ft
Windchill 47 °F
Dew Point 46 °F
Humidity 95%
Rainfall 1.01 in
Snow Depth Not available.
6:56 AM 5:57 PM
New Moon, 0% visible
SPECI CYHZ 261510Z 23013G19KT 3/4SM R23/3000FT/N R14/4500VP6000FT/U BR OVC003 07/07 A2938 RMK FG7SF1 SLP952

Get Your Daily Forecast Email!

Thanks for signing up!

Be on the lookout for a verification email in your inbox.

You'll start receiving the daily forecast at 8 AM.

×

10-Day Weather Forecast

Almanac

Astronomy

Feb. 26, 2017 Rise Set
Actual Time
Civil Twilight
Nautical Twilight
Astronomical Twilight
Moon
Length of Visible Light
Length of Day
Tomorrow will be .
, % of the Moon is Illuminated

Today's Extremes

Country Highs Country Lows

Community

WunderPhotos

Upload Photos

1,962,540 photos uploaded!

WunderBlog® & News

Nearby

Air Quality

  Air Quality AQ Index Pollutant
Not available.

Snow Depth

Station Depth Elevation

Earthquake Activity

City Distance Mag. Time & Date
Minimum magnitude displayed is 2.5.

Coastal Water Temperatures

Place Temperature

Stations

Nearby Weather Stations

Station Location Temp. Windchill Dew Point Humidity Wind Precip. Elev Updated Type
                   

Watches & Warnings

There are currently no watches in effect.